createdAt,value
2018-08-04T00:01:13.489Z,11.07
2018-08-04T00:03:42.118Z,10.50
2018-08-04T00:06:10.316Z,12.27
2018-08-04T00:08:38.730Z,9.40
2018-08-04T00:11:07.090Z,13.47
2018-08-04T00:13:35.608Z,9.30
2018-08-04T00:16:04.444Z,9.77
2018-08-04T00:18:32.871Z,11.27
2018-08-04T00:21:01.434Z,12.50
2018-08-04T00:23:29.853Z,9.93
2018-08-04T00:25:58.248Z,13.23
2018-08-04T00:28:26.717Z,10.20
2018-08-04T00:30:55.164Z,9.53
2018-08-04T00:33:23.668Z,12.90
2018-08-04T00:35:52.180Z,9.13
2018-08-04T00:38:20.582Z,10.50
2018-08-04T00:40:49.032Z,10.00
2018-08-04T00:43:17.386Z,9.10
2018-08-04T00:45:45.762Z,12.50
2018-08-04T00:48:14.209Z,10.20
2018-08-04T00:50:42.702Z,8.90
2018-08-04T00:53:11.096Z,8.40
2018-08-04T00:55:39.546Z,8.33
2018-08-04T00:58:07.912Z,8.73
2018-08-04T01:00:36.472Z,10.17
2018-08-04T01:03:04.848Z,8.93
2018-08-04T01:05:33.376Z,8.83
2018-08-04T01:08:01.811Z,13.30
2018-08-04T01:10:30.239Z,7.83
2018-08-04T01:12:59.658Z,7.73
2018-08-04T01:15:28.170Z,7.77
2018-08-04T01:17:56.570Z,9.10
2018-08-04T01:20:25.014Z,8.77
2018-08-04T01:22:53.378Z,8.27
2018-08-04T01:25:21.795Z,9.13
2018-08-04T01:27:50.178Z,7.83
2018-08-04T01:30:18.626Z,8.07
2018-08-04T01:32:47.006Z,6.57
2018-08-04T01:35:15.456Z,8.33
2018-08-04T01:37:43.930Z,8.50
2018-08-04T01:40:12.092Z,9.53
2018-08-04T01:42:40.584Z,13.33
2018-08-04T01:45:08.757Z,8.53
2018-08-04T01:47:37.148Z,8.27
2018-08-04T01:50:06.136Z,10.03
2018-08-04T01:52:34.584Z,9.20
2018-08-04T01:55:02.933Z,12.53
2018-08-04T01:57:31.516Z,8.50
2018-08-04T01:59:59.931Z,14.80
2018-08-04T02:02:28.281Z,8.37
2018-08-04T02:04:56.857Z,8.33
2018-08-04T02:07:25.254Z,9.27
2018-08-04T02:09:53.708Z,10.20
2018-08-04T02:12:22.203Z,8.53
2018-08-04T02:14:50.740Z,8.87
2018-08-04T02:17:19.158Z,8.63
2018-08-04T02:19:47.520Z,17.80
2018-08-04T02:22:16.028Z,9.73
2018-08-04T02:24:44.504Z,10.00
2018-08-04T02:27:12.978Z,11.00
2018-08-04T02:29:41.350Z,7.93
2018-08-04T02:32:09.744Z,8.03
2018-08-04T02:34:38.122Z,8.53
2018-08-04T02:37:06.520Z,8.67
2018-08-04T02:39:34.877Z,8.20
2018-08-04T02:42:03.416Z,7.80
2018-08-04T02:44:31.836Z,12.40
2018-08-04T02:47:00.287Z,13.30
2018-08-04T02:51:49.233Z,12.83
2018-08-04T02:54:17.625Z,8.37
2018-08-04T02:56:46.131Z,9.57
2018-08-04T02:59:14.752Z,8.20
2018-08-04T03:01:43.179Z,8.90
2018-08-04T03:04:11.568Z,10.47
2018-08-04T03:06:39.935Z,8.67
2018-08-04T03:09:10.704Z,12.70
2018-08-04T03:11:39.116Z,9.77
2018-08-04T03:14:07.666Z,8.83
2018-08-04T03:16:36.042Z,9.27
2018-08-04T03:19:04.506Z,11.50
2018-08-04T03:21:33.055Z,9.77
2018-08-04T03:24:01.456Z,10.70
2018-08-04T03:26:30.017Z,10.43
2018-08-04T03:28:58.438Z,11.30
2018-08-04T03:31:26.975Z,11.40
2018-08-04T03:33:55.388Z,14.53
2018-08-04T03:36:23.786Z,8.63
2018-08-04T03:38:52.225Z,9.57
2018-08-04T03:41:20.654Z,10.50
2018-08-04T03:43:49.516Z,9.80
2018-08-04T03:46:18.064Z,10.13
2018-08-04T03:48:46.509Z,13.40
2018-08-04T03:51:14.888Z,11.73
2018-08-04T03:53:43.296Z,9.40
2018-08-04T03:56:11.731Z,12.17
2018-08-04T03:58:40.136Z,10.07
2018-08-04T04:01:08.638Z,9.73
2018-08-04T04:03:37.046Z,11.00
2018-08-04T04:06:13.589Z,10.40
2018-08-04T04:08:41.994Z,9.97
2018-08-04T04:11:10.454Z,11.30
2018-08-04T04:13:39.048Z,9.07
2018-08-04T04:16:07.390Z,12.90
2018-08-04T04:18:35.860Z,8.80
2018-08-04T04:21:04.252Z,9.73
2018-08-04T04:23:32.924Z,12.43
2018-08-04T04:26:01.255Z,10.53
2018-08-04T04:28:29.613Z,9.43
2018-08-04T04:30:58.006Z,8.93
2018-08-04T04:33:26.447Z,8.60
2018-08-04T04:35:55.713Z,11.93
2018-08-04T04:38:24.255Z,9.80
2018-08-04T04:40:52.843Z,9.47
2018-08-04T04:43:21.345Z,11.23
2018-08-04T04:45:49.796Z,11.13
2018-08-04T04:48:18.322Z,13.13
2018-08-04T04:50:46.860Z,10.33
2018-08-04T04:53:15.288Z,11.00
2018-08-04T04:55:43.835Z,11.53
2018-08-04T04:58:12.288Z,11.03
2018-08-04T05:00:40.655Z,10.60
2018-08-04T05:03:09.061Z,10.53
2018-08-04T05:05:37.173Z,10.37
2018-08-04T05:08:05.912Z,9.27
2018-08-04T05:10:34.280Z,12.83
2018-08-04T05:13:02.754Z,10.87
2018-08-04T05:15:31.182Z,10.10
2018-08-04T05:17:59.569Z,11.27
2018-08-04T05:20:28.061Z,12.70
2018-08-04T05:22:56.595Z,9.07
2018-08-04T05:25:24.972Z,12.40
2018-08-04T05:27:53.483Z,9.27
2018-08-04T05:30:22.207Z,26.30
2018-08-04T05:32:50.814Z,12.17
2018-08-04T05:35:19.474Z,16.90
2018-08-04T05:37:48.056Z,13.53
2018-08-04T05:40:16.626Z,13.53
2018-08-04T05:42:45.114Z,15.03
2018-08-04T05:45:13.578Z,14.90
2018-08-04T05:47:41.973Z,12.83
2018-08-04T05:50:10.358Z,24.17
2018-08-04T05:52:38.841Z,34.10
2018-08-04T05:55:07.300Z,16.70
2018-08-04T05:57:35.685Z,21.30
2018-08-04T06:00:04.756Z,25.03
2018-08-04T06:02:33.268Z,28.43
2018-08-04T06:05:01.864Z,19.43
2018-08-04T06:07:30.279Z,16.20
2018-08-04T06:09:58.799Z,17.20
2018-08-04T06:12:27.243Z,19.73
2018-08-04T06:14:56.728Z,25.30
2018-08-04T06:17:25.195Z,23.17
2018-08-04T06:19:53.425Z,18.87
2018-08-04T06:22:21.983Z,19.10
2018-08-04T06:24:50.591Z,19.27
2018-08-04T06:27:19.005Z,15.33
2018-08-04T06:29:47.543Z,19.13
2018-08-04T06:32:16.017Z,15.40
2018-08-04T06:34:44.473Z,16.87
2018-08-04T06:37:13.069Z,17.13
2018-08-04T06:39:41.638Z,15.87
2018-08-04T06:42:10.314Z,14.77
2018-08-04T06:44:39.157Z,15.33
2018-08-04T06:47:07.654Z,12.60
2018-08-04T06:49:36.050Z,12.50
2018-08-04T06:52:04.174Z,15.80
2018-08-04T06:54:32.679Z,13.50
2018-08-04T06:57:01.065Z,24.57
2018-08-04T06:59:29.590Z,22.57
2018-08-04T07:01:58.305Z,17.43
2018-08-04T07:04:26.733Z,31.00
2018-08-04T07:06:55.251Z,22.67
2018-08-04T07:09:23.804Z,23.13
2018-08-04T07:11:52.177Z,20.90
2018-08-04T07:14:20.550Z,16.93
2018-08-04T07:16:49.140Z,20.87
2018-08-04T07:19:17.572Z,25.37
2018-08-04T07:21:46.112Z,16.33
2018-08-04T07:24:14.669Z,11.70
2018-08-04T07:26:43.234Z,11.90
2018-08-04T07:29:11.822Z,16.53
2018-08-04T07:31:40.293Z,11.90
2018-08-04T07:34:08.663Z,23.13
2018-08-04T07:36:37.051Z,12.47
2018-08-04T07:39:07.465Z,16.20
2018-08-04T07:41:35.929Z,11.30
2018-08-04T07:44:05.442Z,12.00
2018-08-04T07:46:34.223Z,11.50
2018-08-04T07:49:02.712Z,15.20
2018-08-04T07:51:31.069Z,12.87
2018-08-04T07:53:59.654Z,17.07
2018-08-04T07:56:28.049Z,17.13
2018-08-04T07:58:56.500Z,12.60
2018-08-04T08:01:25.324Z,13.03
2018-08-04T08:03:53.933Z,11.93
2018-08-04T08:06:22.729Z,13.10
2018-08-04T08:08:51.119Z,10.23
2018-08-04T08:11:19.687Z,15.83
2018-08-04T08:13:50.554Z,14.20
2018-08-04T08:16:18.792Z,16.30
2018-08-04T08:18:47.157Z,9.90
2018-08-04T08:21:15.690Z,11.03
2018-08-04T08:23:44.162Z,10.47
2018-08-04T08:26:13.953Z,10.60
2018-08-04T08:28:43.070Z,10.20
2018-08-04T08:31:11.671Z,10.73
2018-08-04T08:33:40.760Z,27.40
2018-08-04T08:38:28.738Z,26.87
2018-08-04T08:40:57.490Z,23.60
2018-08-04T08:43:26.241Z,19.20
2018-08-04T08:45:54.643Z,25.97
2018-08-04T08:48:23.352Z,19.37
2018-08-04T08:50:51.926Z,10.77
2018-08-04T08:53:20.711Z,17.63
2018-08-04T08:55:49.037Z,14.83
2018-08-04T08:58:17.652Z,21.40
2018-08-04T09:00:46.082Z,12.07
2018-08-04T09:03:14.575Z,12.80
2018-08-04T09:05:43.120Z,21.90
2018-08-04T09:08:11.569Z,19.90
2018-08-04T09:10:40.126Z,12.00
2018-08-04T09:13:08.651Z,14.60
2018-08-04T09:15:37.192Z,11.07
2018-08-04T09:18:05.626Z,15.17
2018-08-04T09:20:34.072Z,15.80
2018-08-04T09:23:02.635Z,15.43
2018-08-04T09:25:31.100Z,13.40
2018-08-04T09:27:59.505Z,13.70
2018-08-04T09:30:28.069Z,25.07
2018-08-04T09:32:56.516Z,16.13
2018-08-04T09:35:24.999Z,13.07
2018-08-04T09:37:53.524Z,17.30
2018-08-04T09:40:21.954Z,15.93
2018-08-04T09:42:50.490Z,18.40
2018-08-04T09:45:18.932Z,19.40
2018-08-04T09:47:48.345Z,12.97
2018-08-04T09:50:16.925Z,17.67
2018-08-04T09:52:45.459Z,19.50
2018-08-04T09:55:14.036Z,20.53
2018-08-04T09:57:42.793Z,24.77
2018-08-04T10:00:18.643Z,12.13
2018-08-04T10:02:47.163Z,18.90
2018-08-04T10:05:15.292Z,18.70
2018-08-04T10:07:43.810Z,9.80
2018-08-04T10:10:12.388Z,24.77
2018-08-04T10:12:41.037Z,12.93
2018-08-04T10:15:10.704Z,13.60
2018-08-04T10:17:39.541Z,11.03
2018-08-04T10:20:09.887Z,8.47
2018-08-04T10:22:38.554Z,7.67
2018-08-04T10:25:07.735Z,14.63
2018-08-04T10:27:36.130Z,12.10
2018-08-04T10:30:06.921Z,15.43
2018-08-04T10:32:35.527Z,13.40
2018-08-04T10:35:04.183Z,9.63
2018-08-04T10:37:32.626Z,13.80
2018-08-04T10:40:01.330Z,12.33
2018-08-04T10:42:29.856Z,13.17
2018-08-04T10:44:58.314Z,12.30
2018-08-04T10:47:26.902Z,14.37
2018-08-04T10:49:55.318Z,9.20
2018-08-04T10:52:23.744Z,10.40
2018-08-04T10:54:52.610Z,9.80
2018-08-04T10:57:21.441Z,13.57
2018-08-04T10:59:50.020Z,15.63
2018-08-04T11:02:18.410Z,12.53
2018-08-04T11:04:46.993Z,10.77
2018-08-04T11:07:15.434Z,12.17
2018-08-04T11:09:43.621Z,11.57
2018-08-04T11:12:12.259Z,16.77
2018-08-04T11:14:40.648Z,13.67
2018-08-04T11:17:09.070Z,11.40
2018-08-04T11:19:37.640Z,12.30
2018-08-04T11:22:06.226Z,13.37
2018-08-04T11:24:34.736Z,7.13
2018-08-04T11:27:03.400Z,13.73
2018-08-04T11:29:31.805Z,10.60
2018-08-04T11:32:00.283Z,7.57
2018-08-04T11:34:28.917Z,11.77
2018-08-04T11:36:57.335Z,15.30
2018-08-04T11:39:25.783Z,13.97
2018-08-04T11:41:54.224Z,10.63
2018-08-04T11:44:22.656Z,8.23
2018-08-04T11:46:51.212Z,8.20
2018-08-04T11:49:19.772Z,10.63
2018-08-04T11:51:48.236Z,6.83
2018-08-04T11:54:16.821Z,9.33
2018-08-04T11:56:45.293Z,10.53
2018-08-04T11:59:13.710Z,5.97
2018-08-04T12:01:42.334Z,13.70
2018-08-04T12:04:10.868Z,9.43
2018-08-04T12:06:39.376Z,21.80
2018-08-04T12:09:10.462Z,8.73
2018-08-04T12:11:38.980Z,14.03
2018-08-04T12:14:08.171Z,13.57
2018-08-04T12:16:36.636Z,14.53
2018-08-04T12:19:05.345Z,24.03
2018-08-04T12:21:34.018Z,16.33
2018-08-04T12:24:02.410Z,18.83
2018-08-04T12:26:30.835Z,32.57
2018-08-04T12:28:59.231Z,22.20
2018-08-04T12:31:27.796Z,37.27
2018-08-04T12:33:56.201Z,42.30
2018-08-04T12:36:24.602Z,41.30
2018-08-04T12:38:53.160Z,30.07
2018-08-04T12:41:21.619Z,26.57
2018-08-04T12:43:50.102Z,30.00
2018-08-04T12:46:18.446Z,29.07
2018-08-04T12:48:46.900Z,29.10
2018-08-04T12:51:15.332Z,23.67
2018-08-04T12:53:43.976Z,40.73
2018-08-04T12:56:12.458Z,25.60
2018-08-04T12:58:40.894Z,38.57
2018-08-04T13:01:09.354Z,27.20
2018-08-04T13:03:37.741Z,32.40
2018-08-04T13:06:06.421Z,17.53
2018-08-04T13:08:34.798Z,22.50
2018-08-04T13:11:03.272Z,31.37
2018-08-04T13:13:31.772Z,34.53
2018-08-04T13:16:01.756Z,20.83
2018-08-04T13:18:30.148Z,20.13
2018-08-04T13:21:00.099Z,21.13
2018-08-04T13:23:28.454Z,28.80
2018-08-04T13:25:56.884Z,22.53
2018-08-04T13:28:26.475Z,29.53
2018-08-04T13:30:54.899Z,22.93
2018-08-04T13:33:23.576Z,21.07
2018-08-04T13:35:52.215Z,23.60
2018-08-04T13:38:20.712Z,15.60
2018-08-04T13:40:50.104Z,26.80
2018-08-04T13:43:18.686Z,16.80
2018-08-04T13:45:47.081Z,22.80
2018-08-04T13:48:15.536Z,23.10
2018-08-04T13:50:43.945Z,22.17
2018-08-04T13:53:12.699Z,15.83
2018-08-04T13:55:42.011Z,22.33
2018-08-04T13:58:10.496Z,19.03
2018-08-04T14:00:38.968Z,16.33
2018-08-04T14:03:07.447Z,24.73
2018-08-04T14:05:35.900Z,15.40
2018-08-04T14:08:04.327Z,29.97
2018-08-04T14:10:32.870Z,17.40
2018-08-04T14:13:01.417Z,15.33
2018-08-04T14:15:29.911Z,16.23
2018-08-04T14:17:58.321Z,10.40
2018-08-04T14:20:26.819Z,25.27
2018-08-04T14:22:55.385Z,22.90
2018-08-04T14:25:23.763Z,15.73
2018-08-04T14:27:52.168Z,13.27
2018-08-04T14:30:20.704Z,11.47
2018-08-04T14:32:49.146Z,16.50
2018-08-04T14:35:17.692Z,10.73
2018-08-04T14:37:46.081Z,10.33
2018-08-04T14:40:14.511Z,11.00
2018-08-04T14:42:43.043Z,21.63
2018-08-04T14:45:11.513Z,17.97
2018-08-04T14:47:39.957Z,12.80
2018-08-04T14:50:08.350Z,14.70
2018-08-04T14:52:36.948Z,11.90
2018-08-04T14:55:05.974Z,18.30
2018-08-04T14:57:34.345Z,16.23
2018-08-04T15:00:02.819Z,18.77
2018-08-04T15:02:31.420Z,10.33
2018-08-04T15:04:59.952Z,10.77
2018-08-04T15:07:28.482Z,17.33
2018-08-04T15:09:56.997Z,13.67
2018-08-04T15:12:25.075Z,11.60
2018-08-04T15:14:53.570Z,10.90
2018-08-04T15:17:22.039Z,21.60
2018-08-04T15:19:50.555Z,10.10
2018-08-04T15:22:19.065Z,14.17
2018-08-04T15:24:47.532Z,8.97
2018-08-04T15:27:15.886Z,10.90
2018-08-04T15:29:44.455Z,10.67
2018-08-04T15:32:13.007Z,7.67
2018-08-04T15:34:41.459Z,7.43
2018-08-04T15:37:09.893Z,9.67
2018-08-04T15:39:38.313Z,12.03
2018-08-04T15:42:06.916Z,6.27
2018-08-04T15:44:35.037Z,11.07
2018-08-04T15:47:03.465Z,9.00
2018-08-04T15:49:31.817Z,9.87
2018-08-04T15:52:00.213Z,6.30
2018-08-04T15:54:28.597Z,6.73
2018-08-04T15:56:56.996Z,6.97
2018-08-04T15:59:25.394Z,6.70
2018-08-04T16:01:54.054Z,13.20
2018-08-04T16:04:22.478Z,5.40
2018-08-04T16:06:50.862Z,12.63
2018-08-04T16:09:19.246Z,8.33
2018-08-04T16:11:47.767Z,5.67
2018-08-04T16:14:16.195Z,7.53
2018-08-04T16:16:44.680Z,11.00
2018-08-04T16:19:13.223Z,8.23
2018-08-04T16:21:41.684Z,7.20
2018-08-04T16:24:10.300Z,9.23
2018-08-04T16:26:38.749Z,9.30
2018-08-04T16:29:07.179Z,8.00
2018-08-04T16:31:35.618Z,6.77
2018-08-04T16:34:04.142Z,9.47
2018-08-04T16:36:32.668Z,8.47
2018-08-04T16:39:01.085Z,6.50
2018-08-04T16:41:29.595Z,5.40
2018-08-04T16:43:58.025Z,5.17
2018-08-04T16:46:26.600Z,10.83
2018-08-04T16:48:55.054Z,7.57
2018-08-04T16:51:23.605Z,6.63
2018-08-04T16:53:52.118Z,9.40
2018-08-04T16:56:20.548Z,5.10
2018-08-04T16:58:48.984Z,5.20
2018-08-04T17:01:17.367Z,8.47
2018-08-04T17:03:45.934Z,6.27
2018-08-04T17:06:14.453Z,5.87
2018-08-04T17:08:42.927Z,6.90
2018-08-04T17:11:11.313Z,5.60
2018-08-04T17:13:39.824Z,6.50
2018-08-04T17:16:08.214Z,6.60
2018-08-04T17:18:36.634Z,8.80
2018-08-04T17:21:05.176Z,4.73
2018-08-04T17:23:33.421Z,18.10
2018-08-04T17:26:01.955Z,20.87
2018-08-04T17:28:30.553Z,7.60
2018-08-04T17:30:58.941Z,7.63
2018-08-04T17:33:27.653Z,8.77
2018-08-04T17:35:56.087Z,4.93
2018-08-04T17:38:24.480Z,4.67
2018-08-04T17:40:53.075Z,5.43
2018-08-04T17:43:21.505Z,8.87
2018-08-04T17:45:49.937Z,5.97
2018-08-04T17:48:18.433Z,10.63
2018-08-04T17:50:46.888Z,5.20
2018-08-04T17:53:15.395Z,4.20
2018-08-04T17:55:43.802Z,5.73
2018-08-04T17:58:12.234Z,4.10
2018-08-04T18:00:40.613Z,4.70
2018-08-04T18:03:09.105Z,8.77
2018-08-04T18:05:37.499Z,5.53
2018-08-04T18:08:05.702Z,7.80
2018-08-04T18:10:34.255Z,7.70
2018-08-04T18:13:02.338Z,7.70
2018-08-04T18:15:30.928Z,8.13
2018-08-04T18:17:59.463Z,9.27
2018-08-04T18:20:28.048Z,11.63
2018-08-04T18:22:56.529Z,13.07
2018-08-04T18:25:25.026Z,9.00
2018-08-04T18:27:53.393Z,9.63
2018-08-04T18:30:22.079Z,9.40
2018-08-04T18:32:50.454Z,6.90
2018-08-04T18:35:19.118Z,8.00
2018-08-04T18:37:47.726Z,12.47
2018-08-04T18:40:16.279Z,10.10
2018-08-04T18:42:44.777Z,10.93
2018-08-04T18:45:13.301Z,7.83
2018-08-04T18:47:41.737Z,7.27
2018-08-04T18:50:10.233Z,9.10
2018-08-04T18:52:38.721Z,7.93
2018-08-04T18:55:07.307Z,10.67
2018-08-04T18:57:35.909Z,9.28
2018-08-04T19:00:04.824Z,14.40
2018-08-04T19:02:33.350Z,8.40
2018-08-04T19:05:01.857Z,8.40
2018-08-04T19:07:30.294Z,10.10
2018-08-04T19:09:58.649Z,9.10
2018-08-04T19:12:27.110Z,8.10
2018-08-04T19:14:55.863Z,9.80
2018-08-04T19:17:24.516Z,9.40
2018-08-04T19:19:53.010Z,8.10
2018-08-04T19:22:21.550Z,9.60
2018-08-04T19:24:50.240Z,23.53
2018-08-04T19:27:18.705Z,8.17
2018-08-04T19:29:47.074Z,9.93
2018-08-04T19:32:15.456Z,15.83
2018-08-04T19:34:44.004Z,12.33
2018-08-04T19:37:12.768Z,12.57
2018-08-04T19:39:41.235Z,14.17
2018-08-04T19:42:09.619Z,12.13
2018-08-04T19:44:38.184Z,14.70
2018-08-04T19:47:06.625Z,11.80
2018-08-04T19:49:35.072Z,17.97
2018-08-04T19:52:03.624Z,16.10
2018-08-04T19:54:32.157Z,11.20
2018-08-04T19:57:00.569Z,12.30
2018-08-04T19:59:29.184Z,12.93
2018-08-04T20:01:57.764Z,13.33
2018-08-04T20:04:26.662Z,20.50
2018-08-04T20:06:55.060Z,15.33
2018-08-04T20:09:23.481Z,12.67
2018-08-04T20:11:51.970Z,12.10
2018-08-04T20:14:20.398Z,11.10
2018-08-04T20:16:48.814Z,9.83
2018-08-04T20:19:17.285Z,11.33
2018-08-04T20:21:45.844Z,14.13
2018-08-04T20:24:14.253Z,11.07
2018-08-04T20:26:42.894Z,9.80
2018-08-04T20:29:11.308Z,11.57
2018-08-04T20:31:39.840Z,13.30
2018-08-04T20:34:08.337Z,11.27
2018-08-04T20:36:36.779Z,13.87
2018-08-04T20:39:07.972Z,13.93
2018-08-04T20:41:36.543Z,10.50
2018-08-04T20:44:05.208Z,25.90
2018-08-04T20:46:33.787Z,14.90
2018-08-04T20:49:02.302Z,14.23
2018-08-04T20:51:30.866Z,17.00
2018-08-04T20:53:59.333Z,13.70
2018-08-04T20:56:27.901Z,11.33
2018-08-04T20:58:56.425Z,11.80
2018-08-04T21:01:33.884Z,12.10
2018-08-04T21:04:02.452Z,12.83
2018-08-04T21:06:30.884Z,19.73
2018-08-04T21:08:59.413Z,12.40
2018-08-04T21:11:27.851Z,12.23
2018-08-04T21:13:56.323Z,12.83
2018-08-04T21:16:24.824Z,16.03
2018-08-04T21:18:53.204Z,11.07
2018-08-04T21:21:21.717Z,16.40
2018-08-04T21:23:50.209Z,11.90
2018-08-04T21:26:18.682Z,14.63
2018-08-04T21:28:47.151Z,17.03
2018-08-04T21:31:15.573Z,10.10
2018-08-04T21:33:43.904Z,13.33
2018-08-04T21:36:12.464Z,11.83
2018-08-04T21:38:41.057Z,14.00
2018-08-04T21:41:09.447Z,13.10
2018-08-04T21:43:37.917Z,11.33
2018-08-04T21:46:06.374Z,14.40
2018-08-04T21:48:34.816Z,11.10
2018-08-04T21:51:03.249Z,11.37
2018-08-04T21:53:31.716Z,11.20
2018-08-04T21:56:00.273Z,12.20
2018-08-04T21:58:28.684Z,19.20
2018-08-04T22:01:02.478Z,12.10
2018-08-04T22:03:30.828Z,10.70
2018-08-04T22:05:59.270Z,13.43
2018-08-04T22:08:38.920Z,11.87
2018-08-04T22:11:07.365Z,12.87
2018-08-04T22:13:35.762Z,10.33
2018-08-04T22:16:04.285Z,11.27
2018-08-04T22:18:32.830Z,18.13
2018-08-04T22:21:01.381Z,10.20
2018-08-04T22:23:29.840Z,19.43
2018-08-04T22:25:58.365Z,10.33
2018-08-04T22:28:26.772Z,13.23
2018-08-04T22:30:55.119Z,10.90
2018-08-04T22:33:23.513Z,14.43
2018-08-04T22:35:51.959Z,11.73
2018-08-04T22:38:20.494Z,20.93
2018-08-04T22:40:48.937Z,14.47
2018-08-04T22:43:17.348Z,16.20
2018-08-04T22:46:10.822Z,15.50
2018-08-04T22:48:39.600Z,12.20
2018-08-04T22:51:07.972Z,11.00
2018-08-04T22:53:36.609Z,13.83
2018-08-04T22:56:05.057Z,11.53
2018-08-04T22:58:33.470Z,11.47
2018-08-04T23:01:02.069Z,15.70
2018-08-04T23:03:30.486Z,13.30
2018-08-04T23:05:58.836Z,11.30
2018-08-04T23:08:27.273Z,9.03
2018-08-04T23:10:55.744Z,11.27
2018-08-04T23:13:24.164Z,13.10
2018-08-04T23:15:52.634Z,10.93
2018-08-04T23:18:21.039Z,11.63
2018-08-04T23:20:49.393Z,17.43
2018-08-04T23:23:17.890Z,10.57
2018-08-04T23:25:46.424Z,10.60
2018-08-04T23:28:15.102Z,17.40
2018-08-04T23:30:43.617Z,11.20
2018-08-04T23:33:12.002Z,9.67
2018-08-04T23:35:40.340Z,10.27
2018-08-04T23:38:08.697Z,10.23
2018-08-04T23:40:37.160Z,11.37
2018-08-04T23:43:05.586Z,11.30
2018-08-04T23:45:33.792Z,10.50
2018-08-04T23:48:02.224Z,9.10
2018-08-04T23:50:30.690Z,10.27
2018-08-04T23:52:59.138Z,8.97
2018-08-04T23:55:27.562Z,15.73
2018-08-04T23:57:56.070Z,12.73
